sensor_id;sensor_type;location;lat;lon;timestamp;pressure;altitude;pressure_sealevel;temperature;humidity
28588;BME280;15787;49.662;10.162;2024-03-17T00:00:03;99927.50;;;6.55;99.68
28588;BME280;15787;49.662;10.162;2024-03-17T00:02:36;99914.38;;;6.52;100.00
28588;BME280;15787;49.662;10.162;2024-03-17T00:05:10;99916.59;;;6.79;99.38
28588;BME280;15787;49.662;10.162;2024-03-17T00:07:41;99923.56;;;6.59;98.49
28588;BME280;15787;49.662;10.162;2024-03-17T00:10:13;99913.00;;;6.75;98.22
28588;BME280;15787;49.662;10.162;2024-03-17T00:12:46;99917.91;;;6.99;98.70
28588;BME280;15787;49.662;10.162;2024-03-17T00:15:19;99925.66;;;6.76;97.40
28588;BME280;15787;49.662;10.162;2024-03-17T00:17:51;99928.09;;;6.78;97.22
28588;BME280;15787;49.662;10.162;2024-03-17T00:20:22;99926.47;;;6.77;96.97
28588;BME280;15787;49.662;10.162;2024-03-17T00:22:56;99927.84;;;7.00;96.41
28588;BME280;15787;49.662;10.162;2024-03-17T00:25:28;99928.53;;;6.83;95.05
28588;BME280;15787;49.662;10.162;2024-03-17T00:28:00;99929.75;;;6.86;95.10
28588;BME280;15787;49.662;10.162;2024-03-17T00:30:33;99931.03;;;7.03;95.41
28588;BME280;15787;49.662;10.162;2024-03-17T00:33:05;99938.13;;;6.93;94.65
28588;BME280;15787;49.662;10.162;2024-03-17T00:35:35;99929.81;;;6.96;93.25
28588;BME280;15787;49.662;10.162;2024-03-17T00:38:08;99919.81;;;6.85;93.65
28588;BME280;15787;49.662;10.162;2024-03-17T00:40:41;99920.59;;;6.85;93.91
28588;BME280;15787;49.662;10.162;2024-03-17T00:43:13;99927.03;;;6.96;93.73
28588;BME280;15787;49.662;10.162;2024-03-17T00:45:51;99918.75;;;7.04;93.64
28588;BME280;15787;49.662;10.162;2024-03-17T00:48:23;99923.75;;;6.84;93.50
28588;BME280;15787;49.662;10.162;2024-03-17T00:50:55;99927.09;;;7.07;93.68
28588;BME280;15787;49.662;10.162;2024-03-17T00:53:27;99916.38;;;7.06;93.76
28588;BME280;15787;49.662;10.162;2024-03-17T00:55:58;99913.53;;;6.95;93.29
28588;BME280;15787;49.662;10.162;2024-03-17T00:58:32;99922.19;;;6.83;92.96
28588;BME280;15787;49.662;10.162;2024-03-17T01:01:04;99922.34;;;7.08;93.19
28588;BME280;15787;49.662;10.162;2024-03-17T01:03:36;99917.78;;;6.78;92.09
28588;BME280;15787;49.662;10.162;2024-03-17T01:06:07;99913.44;;;6.81;92.92
28588;BME280;15787;49.662;10.162;2024-03-17T01:08:39;99911.59;;;6.99;93.67
28588;BME280;15787;49.662;10.162;2024-03-17T01:11:14;99907.78;;;7.28;93.14
28588;BME280;15787;49.662;10.162;2024-03-17T01:13:48;99905.28;;;7.06;92.70
28588;BME280;15787;49.662;10.162;2024-03-17T01:16:20;99906.44;;;7.05;92.58
28588;BME280;15787;49.662;10.162;2024-03-17T01:18:53;99901.66;;;6.98;92.44
28588;BME280;15787;49.662;10.162;2024-03-17T01:21:24;99909.19;;;6.97;92.67
28588;BME280;15787;49.662;10.162;2024-03-17T01:23:56;99902.56;;;6.62;91.82
28588;BME280;15787;49.662;10.162;2024-03-17T01:26:30;99892.50;;;6.43;93.66
28588;BME280;15787;49.662;10.162;2024-03-17T01:29:03;99901.50;;;5.93;95.19
28588;BME280;15787;49.662;10.162;2024-03-17T01:31:36;99891.72;;;6.02;95.46
28588;BME280;15787;49.662;10.162;2024-03-17T01:34:07;99885.66;;;5.60;97.27
28588;BME280;15787;49.662;10.162;2024-03-17T01:36:38;99875.63;;;6.18;96.98
28588;BME280;15787;49.662;10.162;2024-03-17T01:39:11;99870.75;;;6.05;96.59
28588;BME280;15787;49.662;10.162;2024-03-17T01:41:42;99867.34;;;5.52;97.90
28588;BME280;15787;49.662;10.162;2024-03-17T01:44:22;99869.56;;;5.72;99.08
28588;BME280;15787;49.662;10.162;2024-03-17T01:46:55;99865.75;;;5.51;99.50
28588;BME280;15787;49.662;10.162;2024-03-17T01:49:28;99859.00;;;5.82;100.00
28588;BME280;15787;49.662;10.162;2024-03-17T01:51:59;99863.84;;;5.88;98.84
28588;BME280;15787;49.662;10.162;2024-03-17T01:54:31;99860.50;;;5.75;98.47
28588;BME280;15787;49.662;10.162;2024-03-17T01:57:03;99856.09;;;5.38;99.33
28588;BME280;15787;49.662;10.162;2024-03-17T01:59:35;99855.72;;;5.39;100.00
28588;BME280;15787;49.662;10.162;2024-03-17T02:02:07;99851.31;;;5.35;100.00
28588;BME280;15787;49.662;10.162;2024-03-17T02:04:40;99847.94;;;4.89;100.00
28588;BME280;15787;49.662;10.162;2024-03-17T02:07:11;99852.97;;;5.09;100.00
28588;BME280;15787;49.662;10.162;2024-03-17T02:09:43;99842.06;;;4.94;100.00
28588;BME280;15787;49.662;10.162;2024-03-17T02:12:15;99847.03;;;5.11;100.00
28588;BME280;15787;49.662;10.162;2024-03-17T02:14:46;99832.97;;;4.93;100.00
28588;BME280;15787;49.662;10.162;2024-03-17T02:17:20;99838.50;;;4.41;100.00
28588;BME280;15787;49.662;10.162;2024-03-17T02:19:51;99830.53;;;4.88;100.00
28588;BME280;15787;49.662;10.162;2024-03-17T02:22:24;99827.88;;;4.95;100.00
28588;BME280;15787;49.662;10.162;2024-03-17T02:24:55;99823.47;;;5.21;100.00
28588;BME280;15787;49.662;10.162;2024-03-17T02:27:28;99828.84;;;5.10;100.00
28588;BME280;15787;49.662;10.162;2024-03-17T02:30:00;99823.81;;;4.89;100.00
28588;BME280;15787;49.662;10.162;2024-03-17T02:32:31;99822.69;;;4.94;100.00
28588;BME280;15787;49.662;10.162;2024-03-17T02:35:06;99828.94;;;4.61;100.00
28588;BME280;15787;49.662;10.162;2024-03-17T02:37:40;99834.91;;;4.37;100.00
28588;BME280;15787;49.662;10.162;2024-03-17T02:40:12;99842.13;;;4.45;100.00
28588;BME280;15787;49.662;10.162;2024-03-17T02:42:44;99832.81;;;4.30;100.00
28588;BME280;15787;49.662;10.162;2024-03-17T02:45:18;99830.16;;;4.37;100.00
28588;BME280;15787;49.662;10.162;2024-03-17T02:47:51;99829.50;;;4.70;100.00
28588;BME280;15787;49.662;10.162;2024-03-17T02:50:23;99845.44;;;4.54;100.00
28588;BME280;15787;49.662;10.162;2024-03-17T02:52:57;99844.63;;;4.54;100.00
28588;BME280;15787;49.662;10.162;2024-03-17T02:55:30;99845.91;;;4.33;100.00
28588;BME280;15787;49.662;10.162;2024-03-17T02:58:02;99839.22;;;4.61;100.00
28588;BME280;15787;49.662;10.162;2024-03-17T03:00:34;99838.13;;;4.42;100.00
28588;BME280;15787;49.662;10.162;2024-03-17T03:03:06;99834.31;;;4.24;100.00
28588;BME280;15787;49.662;10.162;2024-03-17T03:05:39;99841.22;;;4.15;100.00
28588;BME280;15787;49.662;10.162;2024-03-17T03:08:12;99829.25;;;4.07;100.00
28588;BME280;15787;49.662;10.162;2024-03-17T03:10:44;99828.00;;;4.27;100.00
28588;BME280;15787;49.662;10.162;2024-03-17T03:13:16;99827.53;;;4.22;100.00
28588;BME280;15787;49.662;10.162;2024-03-17T03:15:48;99823.66;;;3.58;100.00
28588;BME280;15787;49.662;10.162;2024-03-17T03:18:20;99831.22;;;3.23;100.00
28588;BME280;15787;49.662;10.162;2024-03-17T03:20:53;99837.19;;;3.25;100.00
28588;BME280;15787;49.662;10.162;2024-03-17T03:23:26;99836.03;;;3.45;100.00
28588;BME280;15787;49.662;10.162;2024-03-17T03:26:00;99837.47;;;3.39;100.00
28588;BME280;15787;49.662;10.162;2024-03-17T03:28:33;99833.72;;;3.70;100.00
28588;BME280;15787;49.662;10.162;2024-03-17T03:31:05;99833.75;;;3.93;100.00
28588;BME280;15787;49.662;10.162;2024-03-17T03:33:38;99834.69;;;3.58;100.00
28588;BME280;15787;49.662;10.162;2024-03-17T03:36:11;99836.06;;;3.68;100.00
28588;BME280;15787;49.662;10.162;2024-03-17T03:38:45;99838.94;;;3.75;100.00
28588;BME280;15787;49.662;10.162;2024-03-17T03:41:17;99849.06;;;3.67;100.00
28588;BME280;15787;49.662;10.162;2024-03-17T03:43:49;99848.78;;;3.34;100.00
28588;BME280;15787;49.662;10.162;2024-03-17T03:46:21;99837.38;;;3.55;100.00
28588;BME280;15787;49.662;10.162;2024-03-17T03:48:54;99835.63;;;3.66;100.00
28588;BME280;15787;49.662;10.162;2024-03-17T03:51:26;99823.91;;;4.18;100.00
28588;BME280;15787;49.662;10.162;2024-03-17T03:53:59;99838.09;;;3.71;100.00
28588;BME280;15787;49.662;10.162;2024-03-17T03:56:37;99835.19;;;3.64;100.00
28588;BME280;15787;49.662;10.162;2024-03-17T03:59:09;99836.44;;;3.47;100.00
28588;BME280;15787;49.662;10.162;2024-03-17T04:01:41;99830.03;;;3.62;100.00
28588;BME280;15787;49.662;10.162;2024-03-17T04:04:13;99829.31;;;3.88;100.00
28588;BME280;15787;49.662;10.162;2024-03-17T04:06:45;99828.41;;;3.80;100.00
28588;BME280;15787;49.662;10.162;2024-03-17T04:09:19;99833.34;;;3.71;100.00
28588;BME280;15787;49.662;10.162;2024-03-17T04:11:51;99827.00;;;3.48;100.00
28588;BME280;15787;49.662;10.162;2024-03-17T04:14:23;99830.31;;;3.57;100.00
28588;BME280;15787;49.662;10.162;2024-03-17T04:16:55;99827.44;;;3.50;100.00
28588;BME280;15787;49.662;10.162;2024-03-17T04:19:27;99835.19;;;3.87;100.00
28588;BME280;15787;49.662;10.162;2024-03-17T04:21:59;99832.31;;;4.25;100.00
28588;BME280;15787;49.662;10.162;2024-03-17T04:24:33;99825.22;;;4.01;100.00
28588;BME280;15787;49.662;10.162;2024-03-17T04:27:05;99825.63;;;3.80;100.00
28588;BME280;15787;49.662;10.162;2024-03-17T04:29:37;99816.84;;;3.98;100.00
28588;BME280;15787;49.662;10.162;2024-03-17T04:32:09;99830.06;;;4.08;100.00
28588;BME280;15787;49.662;10.162;2024-03-17T04:34:42;99830.75;;;3.78;100.00
28588;BME280;15787;49.662;10.162;2024-03-17T04:37:15;99826.94;;;4.09;100.00
28588;BME280;15787;49.662;10.162;2024-03-17T04:39:49;99832.50;;;4.13;100.00
28588;BME280;15787;49.662;10.162;2024-03-17T04:42:21;99840.13;;;4.19;100.00
28588;BME280;15787;49.662;10.162;2024-03-17T04:44:53;99851.84;;;4.13;100.00
28588;BME280;15787;49.662;10.162;2024-03-17T04:47:25;99850.97;;;3.44;100.00
28588;BME280;15787;49.662;10.162;2024-03-17T04:49:57;99855.97;;;3.39;100.00
28588;BME280;15787;49.662;10.162;2024-03-17T04:52:29;99853.63;;;3.79;100.00
28588;BME280;15787;49.662;10.162;2024-03-17T04:55:03;99850.53;;;3.84;100.00
28588;BME280;15787;49.662;10.162;2024-03-17T04:57:35;99856.44;;;3.82;100.00
28588;BME280;15787;49.662;10.162;2024-03-17T05:00:08;99857.88;;;4.18;100.00
28588;BME280;15787;49.662;10.162;2024-03-17T05:02:42;99856.28;;;4.17;100.00
28588;BME280;15787;49.662;10.162;2024-03-17T05:05:14;99863.53;;;4.25;100.00
28588;BME280;15787;49.662;10.162;2024-03-17T05:07:46;99863.03;;;4.20;100.00
28588;BME280;15787;49.662;10.162;2024-03-17T05:10:19;99867.28;;;4.36;100.00
28588;BME280;15787;49.662;10.162;2024-03-17T05:12:51;99871.50;;;4.08;100.00
28588;BME280;15787;49.662;10.162;2024-03-17T05:15:24;99863.41;;;4.41;100.00
28588;BME280;15787;49.662;10.162;2024-03-17T05:17:56;99876.00;;;4.38;100.00
28588;BME280;15787;49.662;10.162;2024-03-17T05:20:27;99875.53;;;3.68;100.00
28588;BME280;15787;49.662;10.162;2024-03-17T05:22:59;99874.28;;;4.30;100.00
28588;BME280;15787;49.662;10.162;2024-03-17T05:25:33;99872.53;;;4.45;100.00
28588;BME280;15787;49.662;10.162;2024-03-17T05:28:07;99879.38;;;4.28;100.00
28588;BME280;15787;49.662;10.162;2024-03-17T05:30:39;99872.63;;;4.26;100.00
28588;BME280;15787;49.662;10.162;2024-03-17T05:33:11;99878.81;;;3.97;100.00
28588;BME280;15787;49.662;10.162;2024-03-17T05:35:48;99873.34;;;4.23;100.00
28588;BME280;15787;49.662;10.162;2024-03-17T05:38:21;99873.31;;;3.77;100.00
28588;BME280;15787;49.662;10.162;2024-03-17T05:40:57;99866.59;;;3.56;100.00
28588;BME280;15787;49.662;10.162;2024-03-17T05:43:31;99866.78;;;3.66;100.00
28588;BME280;15787;49.662;10.162;2024-03-17T05:46:07;99869.28;;;3.94;100.00
28588;BME280;15787;49.662;10.162;2024-03-17T05:48:40;99867.41;;;4.21;100.00
28588;BME280;15787;49.662;10.162;2024-03-17T05:51:12;99861.44;;;4.19;100.00
28588;BME280;15787;49.662;10.162;2024-03-17T05:53:47;99869.06;;;3.61;100.00
28588;BME280;15787;49.662;10.162;2024-03-17T05:56:20;99871.16;;;3.29;100.00
28588;BME280;15787;49.662;10.162;2024-03-17T05:58:53;99868.94;;;3.76;100.00
28588;BME280;15787;49.662;10.162;2024-03-17T06:01:25;99875.31;;;4.00;100.00
28588;BME280;15787;49.662;10.162;2024-03-17T06:03:58;99869.63;;;4.34;100.00
28588;BME280;15787;49.662;10.162;2024-03-17T06:06:31;99869.13;;;4.06;100.00
28588;BME280;15787;49.662;10.162;2024-03-17T06:09:03;99858.56;;;4.34;100.00
28588;BME280;15787;49.662;10.162;2024-03-17T06:11:41;99863.50;;;4.48;100.00
28588;BME280;15787;49.662;10.162;2024-03-17T06:14:13;99862.28;;;4.45;100.00
28588;BME280;15787;49.662;10.162;2024-03-17T06:16:46;99868.19;;;4.44;100.00
28588;BME280;15787;49.662;10.162;2024-03-17T06:19:18;99866.22;;;4.44;100.00
28588;BME280;15787;49.662;10.162;2024-03-17T06:21:50;99863.63;;;4.55;100.00
28588;BME280;15787;49.662;10.162;2024-03-17T06:24:23;99866.59;;;4.43;100.00
28588;BME280;15787;49.662;10.162;2024-03-17T06:26:56;99863.03;;;3.97;100.00
28588;BME280;15787;49.662;10.162;2024-03-17T06:29:29;99863.22;;;3.85;100.00
28588;BME280;15787;49.662;10.162;2024-03-17T06:32:01;99852.25;;;4.11;100.00
28588;BME280;15787;49.662;10.162;2024-03-17T06:34:34;99857.25;;;4.51;100.00
28588;BME280;15787;49.662;10.162;2024-03-17T06:37:07;99856.00;;;4.48;100.00
28588;BME280;15787;49.662;10.162;2024-03-17T06:39:39;99846.50;;;4.72;100.00
28588;BME280;15787;49.662;10.162;2024-03-17T06:42:12;99857.81;;;4.15;100.00
28588;BME280;15787;49.662;10.162;2024-03-17T06:44:44;99848.13;;;4.24;100.00
28588;BME280;15787;49.662;10.162;2024-03-17T06:47:17;99845.53;;;4.61;100.00
28588;BME280;15787;49.662;10.162;2024-03-17T06:49:49;99850.47;;;4.48;100.00
28588;BME280;15787;49.662;10.162;2024-03-17T06:52:21;99854.41;;;4.47;100.00
28588;BME280;15787;49.662;10.162;2024-03-17T06:54:54;99843.50;;;4.58;100.00
28588;BME280;15787;49.662;10.162;2024-03-17T06:57:28;99840.69;;;4.81;100.00
28588;BME280;15787;49.662;10.162;2024-03-17T07:00:00;99838.22;;;5.02;100.00
28588;BME280;15787;49.662;10.162;2024-03-17T07:02:32;99840.66;;;5.07;100.00
28588;BME280;15787;49.662;10.162;2024-03-17T07:05:06;99835.06;;;5.03;100.00
28588;BME280;15787;49.662;10.162;2024-03-17T07:07:38;99829.53;;;5.03;100.00
28588;BME280;15787;49.662;10.162;2024-03-17T07:10:11;99839.47;;;5.38;100.00
28588;BME280;15787;49.662;10.162;2024-03-17T07:12:45;99844.75;;;5.46;100.00
28588;BME280;15787;49.662;10.162;2024-03-17T07:15:17;99849.09;;;5.47;100.00
28588;BME280;15787;49.662;10.162;2024-03-17T07:17:50;99843.63;;;5.88;100.00
28588;BME280;15787;49.662;10.162;2024-03-17T07:20:22;99846.63;;;6.09;100.00
28588;BME280;15787;49.662;10.162;2024-03-17T07:22:54;99854.53;;;6.07;100.00
28588;BME280;15787;49.662;10.162;2024-03-17T07:25:26;99843.53;;;6.17;100.00
28588;BME280;15787;49.662;10.162;2024-03-17T07:27:59;99841.63;;;6.76;100.00
28588;BME280;15787;49.662;10.162;2024-03-17T07:30:32;99836.72;;;6.55;100.00
28588;BME280;15787;49.662;10.162;2024-03-17T07:33:04;99836.78;;;6.62;100.00
28588;BME280;15787;49.662;10.162;2024-03-17T07:35:36;99829.88;;;7.00;100.00
28588;BME280;15787;49.662;10.162;2024-03-17T07:38:08;99839.47;;;7.13;100.00
28588;BME280;15787;49.662;10.162;2024-03-17T07:40:41;99841.00;;;7.04;98.85
28588;BME280;15787;49.662;10.162;2024-03-17T07:43:15;99847.72;;;7.03;96.26
28588;BME280;15787;49.662;10.162;2024-03-17T07:45:47;99848.34;;;7.50;98.05
28588;BME280;15787;49.662;10.162;2024-03-17T07:48:19;99850.25;;;7.29;96.88
28588;BME280;15787;49.662;10.162;2024-03-17T07:50:54;99851.19;;;7.61;95.89
28588;BME280;15787;49.662;10.162;2024-03-17T07:53:27;99849.22;;;7.65;94.28
28588;BME280;15787;49.662;10.162;2024-03-17T07:56:00;99841.72;;;7.94;94.62
28588;BME280;15787;49.662;10.162;2024-03-17T07:58:33;99837.38;;;7.93;93.68
28588;BME280;15787;49.662;10.162;2024-03-17T08:01:07;99841.38;;;8.13;92.38
28588;BME280;15787;49.662;10.162;2024-03-17T08:03:41;99839.00;;;8.25;91.98
28588;BME280;15787;49.662;10.162;2024-03-17T08:06:15;99827.13;;;8.64;91.77
28588;BME280;15787;49.662;10.162;2024-03-17T08:08:47;99834.63;;;8.77;92.03
28588;BME280;15787;49.662;10.162;2024-03-17T08:11:19;99831.84;;;8.88;90.91
28588;BME280;15787;49.662;10.162;2024-03-17T08:13:53;99833.47;;;8.71;88.83
28588;BME280;15787;49.662;10.162;2024-03-17T08:16:27;99826.16;;;9.23;86.57
28588;BME280;15787;49.662;10.162;2024-03-17T08:19:00;99825.69;;;9.49;85.94
28588;BME280;15787;49.662;10.162;2024-03-17T08:21:32;99825.59;;;9.71;87.05
28588;BME280;15787;49.662;10.162;2024-03-17T08:24:05;99822.19;;;10.04;84.82
28588;BME280;15787;49.662;10.162;2024-03-17T08:26:39;99822.16;;;10.07;83.45
28588;BME280;15787;49.662;10.162;2024-03-17T08:29:13;99824.84;;;10.25;83.11
28588;BME280;15787;49.662;10.162;2024-03-17T08:31:45;99820.41;;;10.35;80.31
28588;BME280;15787;49.662;10.162;2024-03-17T08:34:17;99831.16;;;10.36;77.85
28588;BME280;15787;49.662;10.162;2024-03-17T08:36:50;99820.13;;;10.66;78.17
28588;BME280;15787;49.662;10.162;2024-03-17T08:39:22;99831.03;;;10.50;75.55
28588;BME280;15787;49.662;10.162;2024-03-17T08:41:54;99821.91;;;10.91;74.43
28588;BME280;15787;49.662;10.162;2024-03-17T08:44:28;99829.53;;;10.83;75.71
28588;BME280;15787;49.662;10.162;2024-03-17T08:47:00;99828.22;;;10.54;74.71
28588;BME280;15787;49.662;10.162;2024-03-17T08:49:32;99828.22;;;10.54;75.50
28588;BME280;15787;49.662;10.162;2024-03-17T08:52:04;99827.78;;;10.59;75.55
28588;BME280;15787;49.662;10.162;2024-03-17T08:54:37;99829.75;;;11.36;73.90
28588;BME280;15787;49.662;10.162;2024-03-17T08:57:09;99824.47;;;11.79;73.93
28588;BME280;15787;49.662;10.162;2024-03-17T08:59:42;99829.44;;;11.31;73.59
28588;BME280;15787;49.662;10.162;2024-03-17T09:02:18;99828.16;;;10.61;76.34
28588;BME280;15787;49.662;10.162;2024-03-17T09:04:51;99822.44;;;10.75;76.23
28588;BME280;15787;49.662;10.162;2024-03-17T09:07:23;99823.28;;;11.09;75.53
28588;BME280;15787;49.662;10.162;2024-03-17T09:09:55;99808.19;;;11.67;73.08
28588;BME280;15787;49.662;10.162;2024-03-17T09:12:28;99814.97;;;11.70;69.81
28588;BME280;15787;49.662;10.162;2024-03-17T09:15:01;99808.66;;;12.19;70.83
28588;BME280;15787;49.662;10.162;2024-03-17T09:17:33;99805.69;;;11.46;69.16
28588;BME280;15787;49.662;10.162;2024-03-17T09:20:06;99811.72;;;12.28;67.09
28588;BME280;15787;49.662;10.162;2024-03-17T09:22:42;99801.53;;;11.58;67.82
28588;BME280;15787;49.662;10.162;2024-03-17T09:25:15;99802.66;;;11.94;67.70
28588;BME280;15787;49.662;10.162;2024-03-17T09:27:47;99809.31;;;11.77;67.31
28588;BME280;15787;49.662;10.162;2024-03-17T09:30:21;99807.72;;;12.29;65.74
28588;BME280;15787;49.662;10.162;2024-03-17T09:32:54;99815.47;;;11.61;67.93
28588;BME280;15787;49.662;10.162;2024-03-17T09:35:26;99814.00;;;11.83;68.12
28588;BME280;15787;49.662;10.162;2024-03-17T09:37:58;99807.19;;;11.84;67.07
28588;BME280;15787;49.662;10.162;2024-03-17T09:40:30;99805.03;;;12.22;67.09
28588;BME280;15787;49.662;10.162;2024-03-17T09:43:03;99808.75;;;12.39;66.98
28588;BME280;15787;49.662;10.162;2024-03-17T09:45:37;99803.63;;;12.80;65.96
28588;BME280;15787;49.662;10.162;2024-03-17T09:48:14;99793.28;;;13.20;65.93
28588;BME280;15787;49.662;10.162;2024-03-17T09:50:50;99791.44;;;13.13;63.24
28588;BME280;15787;49.662;10.162;2024-03-17T09:53:26;99789.91;;;13.28;61.40
28588;BME280;15787;49.662;10.162;2024-03-17T09:56:01;99794.09;;;12.97;63.30
28588;BME280;15787;49.662;10.162;2024-03-17T09:58:35;99786.81;;;13.98;59.47
28588;BME280;15787;49.662;10.162;2024-03-17T10:01:09;99787.88;;;14.20;58.61
28588;BME280;15787;49.662;10.162;2024-03-17T10:03:44;99781.97;;;13.99;57.49
28588;BME280;15787;49.662;10.162;2024-03-17T10:06:18;99785.22;;;13.61;57.35
28588;BME280;15787;49.662;10.162;2024-03-17T10:08:51;99785.50;;;13.67;57.53
28588;BME280;15787;49.662;10.162;2024-03-17T10:11:24;99779.88;;;14.19;60.35
28588;BME280;15787;49.662;10.162;2024-03-17T10:14:01;99775.09;;;14.35;58.77
28588;BME280;15787;49.662;10.162;2024-03-17T10:16:36;99772.31;;;14.00;58.89
28588;BME280;15787;49.662;10.162;2024-03-17T10:19:10;99772.63;;;14.53;57.61
28588;BME280;15787;49.662;10.162;2024-03-17T10:21:45;99762.78;;;15.06;56.22
28588;BME280;15787;49.662;10.162;2024-03-17T10:24:20;99769.47;;;14.96;56.68
28588;BME280;15787;49.662;10.162;2024-03-17T10:26:54;99769.03;;;14.53;55.10
28588;BME280;15787;49.662;10.162;2024-03-17T10:29:27;99783.59;;;14.48;54.46
28588;BME280;15787;49.662;10.162;2024-03-17T10:32:04;99779.84;;;14.38;53.19
28588;BME280;15787;49.662;10.162;2024-03-17T10:34:37;99776.31;;;14.50;52.92
28588;BME280;15787;49.662;10.162;2024-03-17T10:37:11;99767.97;;;13.79;52.49
28588;BME280;15787;49.662;10.162;2024-03-17T10:39:46;99763.41;;;14.21;52.92
28588;BME280;15787;49.662;10.162;2024-03-17T10:42:23;99758.84;;;14.43;54.17
28588;BME280;15787;49.662;10.162;2024-03-17T10:44:57;99760.59;;;14.69;52.95
28588;BME280;15787;49.662;10.162;2024-03-17T10:47:31;99759.50;;;14.79;53.40
28588;BME280;15787;49.662;10.162;2024-03-17T10:50:14;99759.56;;;14.31;53.91
28588;BME280;15787;49.662;10.162;2024-03-17T10:52:49;99756.84;;;14.88;52.37
28588;BME280;15787;49.662;10.162;2024-03-17T10:55:26;99747.00;;;14.80;52.40
28588;BME280;15787;49.662;10.162;2024-03-17T10:58:00;99749.91;;;15.63;53.60
28588;BME280;15787;49.662;10.162;2024-03-17T11:00:36;99748.97;;;14.67;54.16
28588;BME280;15787;49.662;10.162;2024-03-17T11:03:10;99733.78;;;15.51;54.88
28588;BME280;15787;49.662;10.162;2024-03-17T11:05:43;99734.63;;;15.35;51.07
28588;BME280;15787;49.662;10.162;2024-03-17T11:08:17;99721.50;;;15.16;52.41
28588;BME280;15787;49.662;10.162;2024-03-17T11:10:52;99721.34;;;14.94;55.86
28588;BME280;15787;49.662;10.162;2024-03-17T11:13:27;99729.16;;;15.15;54.49
28588;BME280;15787;49.662;10.162;2024-03-17T11:15:59;99742.53;;;15.11;54.35
28588;BME280;15787;49.662;10.162;2024-03-17T11:18:37;99731.00;;;15.76;52.42
28588;BME280;15787;49.662;10.162;2024-03-17T11:21:21;99726.34;;;15.69;51.26
28588;BME280;15787;49.662;10.162;2024-03-17T11:24:00;99720.38;;;15.55;51.26
28588;BME280;15787;49.662;10.162;2024-03-17T11:26:33;99720.06;;;15.65;52.73
28588;BME280;15787;49.662;10.162;2024-03-17T11:29:06;99733.97;;;14.09;52.53
28588;BME280;15787;49.662;10.162;2024-03-17T11:31:43;99734.44;;;14.40;56.23
28588;BME280;15787;49.662;10.162;2024-03-17T11:34:35;99721.84;;;15.59;52.65
28588;BME280;15787;49.662;10.162;2024-03-17T11:37:42;99727.75;;;14.50;53.66
28588;BME280;15787;49.662;10.162;2024-03-17T11:40:24;99720.94;;;15.50;52.82
28588;BME280;15787;49.662;10.162;2024-03-17T11:43:03;99729.00;;;15.06;53.62
28588;BME280;15787;49.662;10.162;2024-03-17T11:45:36;99720.16;;;16.00;52.80
28588;BME280;15787;49.662;10.162;2024-03-17T11:48:12;99716.22;;;15.59;53.16
28588;BME280;15787;49.662;10.162;2024-03-17T11:50:47;99715.31;;;16.13;51.60
28588;BME280;15787;49.662;10.162;2024-03-17T11:53:18;99718.25;;;15.71;53.54
28588;BME280;15787;49.662;10.162;2024-03-17T11:55:51;99708.25;;;16.42;51.57
28588;BME280;15787;49.662;10.162;2024-03-17T11:58:24;99716.53;;;15.99;50.57
28588;BME280;15787;49.662;10.162;2024-03-17T12:00:55;99714.94;;;16.36;49.59
28588;BME280;15787;49.662;10.162;2024-03-17T12:03:29;99704.66;;;16.42;50.77
28588;BME280;15787;49.662;10.162;2024-03-17T12:06:01;99708.31;;;15.92;49.86
28588;BME280;15787;49.662;10.162;2024-03-17T12:08:35;99702.03;;;15.63;50.30
28588;BME280;15787;49.662;10.162;2024-03-17T12:11:16;99701.69;;;16.11;51.31
28588;BME280;15787;49.662;10.162;2024-03-17T12:13:49;99695.09;;;16.74;51.07
28588;BME280;15787;49.662;10.162;2024-03-17T12:16:20;99692.69;;;16.04;49.96
28588;BME280;15787;49.662;10.162;2024-03-17T12:18:52;99694.66;;;16.28;50.31
28588;BME280;15787;49.662;10.162;2024-03-17T12:21:25;99695.81;;;16.06;50.36
28588;BME280;15787;49.662;10.162;2024-03-17T12:23:58;99686.69;;;14.97;51.86
28588;BME280;15787;49.662;10.162;2024-03-17T12:26:29;99688.75;;;15.09;51.81
28588;BME280;15787;49.662;10.162;2024-03-17T12:29:03;99688.13;;;14.61;52.44
28588;BME280;15787;49.662;10.162;2024-03-17T12:31:35;99669.84;;;15.10;52.04
28588;BME280;15787;49.662;10.162;2024-03-17T12:34:07;99670.41;;;15.05;52.54
28588;BME280;15787;49.662;10.162;2024-03-17T12:36:39;99679.19;;;15.61;49.92
28588;BME280;15787;49.662;10.162;2024-03-17T12:39:17;99675.34;;;15.13;52.22
28588;BME280;15787;49.662;10.162;2024-03-17T12:42:01;99687.63;;;15.07;51.97
28588;BME280;15787;49.662;10.162;2024-03-17T12:44:35;99680.63;;;14.70;51.40
28588;BME280;15787;49.662;10.162;2024-03-17T12:47:08;99676.19;;;15.39;52.44
28588;BME280;15787;49.662;10.162;2024-03-17T12:49:45;99668.00;;;14.91;52.50
28588;BME280;15787;49.662;10.162;2024-03-17T12:52:20;99666.56;;;14.99;53.34
28588;BME280;15787;49.662;10.162;2024-03-17T12:54:59;99661.50;;;15.06;53.82
28588;BME280;15787;49.662;10.162;2024-03-17T12:57:47;99658.03;;;15.02;53.32
28588;BME280;15787;49.662;10.162;2024-03-17T13:00:37;99655.84;;;15.86;49.92
28588;BME280;15787;49.662;10.162;2024-03-17T13:03:09;99658.16;;;15.11;52.65
28588;BME280;15787;49.662;10.162;2024-03-17T13:05:53;99664.03;;;15.30;53.27
28588;BME280;15787;49.662;10.162;2024-03-17T13:08:26;99665.88;;;15.49;53.63
28588;BME280;15787;49.662;10.162;2024-03-17T13:10:58;99652.16;;;14.97;51.88
28588;BME280;15787;49.662;10.162;2024-03-17T13:13:31;99658.50;;;16.14;52.11
28588;BME280;15787;49.662;10.162;2024-03-17T13:16:06;99655.84;;;15.86;51.73
28588;BME280;15787;49.662;10.162;2024-03-17T13:18:39;99650.41;;;15.28;52.36
28588;BME280;15787;49.662;10.162;2024-03-17T13:21:12;99646.34;;;15.16;50.08
28588;BME280;15787;49.662;10.162;2024-03-17T13:23:45;99654.31;;;15.05;51.96